K-storm — V2DV8 — position and weather

sailwx.info

Track history (hours):
 
Tides and Currents Weather Stations Pressure Air Temp Water Temp Dewpoint Dewpoint Depression Visibility Wind Speed Wind Dir Waves Ship Positions

K-storm

Last reported at 2014-Nov-14 12:19 UTC. Time now 2014-Nov-20 21:02 UTC.
Position N 24°58' W 080°14'.

Length 139 m; draft 7 m.

Type: Ship. MMSI: 305350000.

Date/timePositionNaut miles runAvg speedWind from/ knotsBaromVisibWave heightAir tempDewpointWater temp
2014-Nov-14 12:19N 24°58' W 080°14'1316.3
2014-Nov-14 11:33N 25°09' W 080°07'1515.5
2014-Nov-14 10:33N 25°23' W 080°00'1514.9
2014-Nov-14 09:33N 25°37' W 080°02'1615.6
2014-Nov-14 08:33N 25°53' W 080°02'1313.0
2014-Nov-14 07:33N 26°06' W 080°06'2 1.8
2014-Nov-14 06:33N 26°04' W 080°07'0 0.0
2014-Nov-14 05:33N 26°04' W 080°07'0 0.0
2014-Nov-14 04:33N 26°04' W 080°07'0 0.0
2014-Nov-14 03:33N 26°04' W 080°07'0 0.0
2014-Nov-14 02:33N 26°04' W 080°07'0 0.0
2014-Nov-14 01:33N 26°04' W 080°07'0 0.0
2014-Nov-14 00:33N 26°04' W 080°07'0 0.0
2014-Nov-13 23:33N 26°04' W 080°07'0 0.0
2014-Nov-13 22:33N 26°04' W 080°07'0 0.0
2014-Nov-13 21:33N 26°04' W 080°07'0 0.0
2014-Nov-13 20:33N 26°04' W 080°07'0 0.0
2014-Nov-13 19:34N 26°04' W 080°07'0 0.0
2014-Nov-13 18:33N 26°04' W 080°07'0 0.0
2014-Nov-13 17:33N 26°04' W 080°07'0 0.0
2014-Nov-13 16:33N 26°04' W 080°07'0 0.0
2014-Nov-13 15:33N 26°04' W 080°07'0 0.0
2014-Nov-13 14:33N 26°04' W 080°07'0 0.0
2014-Nov-13 13:33N 26°04' W 080°07'0 0.0
2014-Nov-13 12:33N 26°04' W 080°07'0 0.0
2014-Nov-13 11:33N 26°04' W 080°07'0 0.0
2014-Nov-13 10:33N 26°04' W 080°07'0 0.0
2014-Nov-13 09:33N 26°04' W 080°07'0 0.0
2014-Nov-13 08:34N 26°04' W 080°07'1 1.2
2014-Nov-13 07:34N 26°05' W 080°07'8 8.1
2014-Nov-13 06:33N 26°01' W 079°59'1111.3
2014-Nov-13 05:33N 25°53' W 079°50'1211.8
2014-Nov-13 04:33N 25°44' W 079°42'  
2014-Nov-07 13:33N 25°08' W 080°08'1313.6
2014-Nov-07 12:33N 25°20' W 080°01'1313.4
2014-Nov-07 11:33N 25°33' W 080°01'1313.5
2014-Nov-07 10:33N 25°47' W 080°01'1313.3
2014-Nov-07 09:33N 25°60' W 080°02'6 6.0
2014-Nov-07 08:33N 26°04' W 080°07'0 0.0
2014-Nov-07 07:32N 26°04' W 080°07'0 0.0
2014-Nov-07 06:28N 26°04' W 080°07'0 0.0
2014-Nov-07 05:22N 26°04' W 080°07'0 0.0
2014-Nov-07 04:33N 26°04' W 080°07'0 0.0
2014-Nov-07 03:24N 26°04' W 080°07'0 0.0
2014-Nov-07 02:32N 26°04' W 080°07'0 0.0
2014-Nov-07 01:26N 26°04' W 080°07'0 0.0
2014-Nov-07 00:16N 26°04' W 080°07'0 0.3
2014-Nov-06 23:28N 26°04' W 080°07'0 0.0
2014-Nov-06 22:19N 26°04' W 080°07'0 0.0
2014-Nov-06 21:33N 26°04' W 080°07'0 0.0
2014-Nov-06 20:33N 26°04' W 080°07'0 0.0
2014-Nov-06 19:33N 26°04' W 080°07'0 0.1
2014-Nov-06 18:33N 26°04' W 080°07'0 0.0
2014-Nov-06 17:33N 26°04' W 080°07'0 0.0
2014-Nov-06 16:33N 26°04' W 080°07'0 0.0
2014-Nov-06 15:33N 26°04' W 080°07'0 0.0
2014-Nov-06 14:33N 26°04' W 080°07'0 0.0
2014-Nov-06 13:33N 26°04' W 080°07'0 0.0
2014-Nov-06 12:33N 26°04' W 080°07'0 0.0
2014-Nov-06 11:33N 26°04' W 080°07'0 0.0
2014-Nov-06 10:33N 26°04' W 080°07'0 0.0
2014-Nov-06 09:33N 26°04' W 080°07'1 1.2
2014-Nov-06 08:33N 26°05' W 080°07'0 0.4
2014-Nov-06 07:33N 26°05' W 080°07'0 0.0
2014-Nov-06 06:33N 26°05' W 080°07'0 0.0
2014-Nov-06 05:33N 26°05' W 080°07'0 0.0
2014-Nov-06 04:33N 26°05' W 080°07'0 0.0
2014-Nov-06 03:33N 26°05' W 080°07'0 0.0
2014-Nov-06 02:33N 26°05' W 080°07'0 0.0
2014-Nov-06 01:33N 26°05' W 080°07'0 0.0
2014-Nov-06 00:33N 26°05' W 080°07'0 0.0
2014-Nov-05 23:33N 26°05' W 080°07'0 0.0
2014-Nov-05 22:33N 26°05' W 080°07'0 0.0
2014-Nov-05 21:33N 26°05' W 080°07'0 0.0
2014-Nov-05 20:33N 26°05' W 080°07'0 0.0
2014-Nov-05 19:33N 26°05' W 080°07'0 0.0
2014-Nov-05 18:33N 26°05' W 080°07'0 0.0
2014-Nov-05 17:33N 26°05' W 080°07'0 0.0
2014-Nov-05 16:33N 26°05' W 080°07'0 0.0
2014-Nov-05 15:33N 26°05' W 080°07'0 0.0
2014-Nov-05 14:33N 26°05' W 080°07'0 0.0
2014-Nov-05 13:33N 26°05' W 080°07'0 0.0
2014-Nov-05 12:33N 26°05' W 080°07'0 0.0
2014-Nov-05 11:33N 26°05' W 080°07'0 0.0
2014-Nov-05 10:33N 26°05' W 080°07'0 0.0
2014-Nov-05 09:33N 26°05' W 080°07'0 0.0
2014-Nov-05 08:33N 26°05' W 080°07'0 0.0
2014-Nov-05 07:33N 26°05' W 080°07'0 0.0
2014-Nov-05 06:33N 26°05' W 080°07'0 0.0
2014-Nov-05 05:33N 26°05' W 080°07'0 0.0
2014-Nov-05 04:33N 26°05' W 080°07'0 0.0
2014-Nov-05 03:33N 26°05' W 080°07'0 0.0
2014-Nov-05 02:33N 26°05' W 080°07'0 0.0
2014-Nov-05 01:33N 26°05' W 080°07'0 0.0
2014-Nov-05 00:33N 26°05' W 080°07'0 0.0
2014-Nov-04 23:33N 26°05' W 080°07'0 0.0
2014-Nov-04 22:33N 26°05' W 080°07'0 0.0
2014-Nov-04 21:33N 26°05' W 080°07'0 0.0
2014-Nov-04 20:33N 26°05' W 080°07'0 0.0
2014-Nov-04 19:33N 26°05' W 080°07'0 0.0
2014-Nov-04 18:33N 26°05' W 080°07'0 0.0
2014-Nov-04 17:33N 26°05' W 080°07'0 0.0
2014-Nov-04 16:33N 26°05' W 080°07'0 0.0
2014-Nov-04 15:33N 26°05' W 080°07'0 0.0
2014-Nov-04 14:33N 26°05' W 080°07'0 0.0
2014-Nov-04 13:33N 26°05' W 080°07'0 0.0
2014-Nov-04 12:33N 26°05' W 080°07'  
Track history (hours):
 
Tides and Currents Weather Stations Pressure Air Temp Water Temp Dewpoint Dewpoint Depression Visibility Wind Speed Wind Dir Waves Ship Positions

K-storm

Last reported at 2014-Nov-14 12:19 UTC. Time now 2014-Nov-20 21:02 UTC.
Position N 24°58' W 080°14'.

Length 139 m; draft 7 m.

Type: Ship. MMSI: 305350000.

Date/timePositionNaut miles runAvg speedWind from/ knotsBaromVisibWave heightAir tempDewpointWater temp
2014-Nov-14 12:19N 24°58' W 080°14'1316.3
2014-Nov-14 11:33N 25°09' W 080°07'1515.5
2014-Nov-14 10:33N 25°23' W 080°00'1514.9
2014-Nov-14 09:33N 25°37' W 080°02'1615.6
2014-Nov-14 08:33N 25°53' W 080°02'1313.0
2014-Nov-14 07:33N 26°06' W 080°06'2 1.8
2014-Nov-14 06:33N 26°04' W 080°07'0 0.0
2014-Nov-14 05:33N 26°04' W 080°07'0 0.0
2014-Nov-14 04:33N 26°04' W 080°07'0 0.0
2014-Nov-14 03:33N 26°04' W 080°07'0 0.0
2014-Nov-14 02:33N 26°04' W 080°07'0 0.0
2014-Nov-14 01:33N 26°04' W 080°07'0 0.0
2014-Nov-14 00:33N 26°04' W 080°07'0 0.0
2014-Nov-13 23:33N 26°04' W 080°07'0 0.0
2014-Nov-13 22:33N 26°04' W 080°07'0 0.0
2014-Nov-13 21:33N 26°04' W 080°07'0 0.0
2014-Nov-13 20:33N 26°04' W 080°07'0 0.0
2014-Nov-13 19:34N 26°04' W 080°07'0 0.0
2014-Nov-13 18:33N 26°04' W 080°07'0 0.0
2014-Nov-13 17:33N 26°04' W 080°07'0 0.0
2014-Nov-13 16:33N 26°04' W 080°07'0 0.0
2014-Nov-13 15:33N 26°04' W 080°07'0 0.0
2014-Nov-13 14:33N 26°04' W 080°07'0 0.0
2014-Nov-13 13:33N 26°04' W 080°07'0 0.0
2014-Nov-13 12:33N 26°04' W 080°07'0 0.0
2014-Nov-13 11:33N 26°04' W 080°07'0 0.0
2014-Nov-13 10:33N 26°04' W 080°07'0 0.0
2014-Nov-13 09:33N 26°04' W 080°07'0 0.0
2014-Nov-13 08:34N 26°04' W 080°07'1 1.2
2014-Nov-13 07:34N 26°05' W 080°07'8 8.1
2014-Nov-13 06:33N 26°01' W 079°59'1111.3
2014-Nov-13 05:33N 25°53' W 079°50'1211.8
2014-Nov-13 04:33N 25°44' W 079°42'  
2014-Nov-07 13:33N 25°08' W 080°08'1313.6
2014-Nov-07 12:33N 25°20' W 080°01'1313.4
2014-Nov-07 11:33N 25°33' W 080°01'1313.5
2014-Nov-07 10:33N 25°47' W 080°01'1313.3
2014-Nov-07 09:33N 25°60' W 080°02'6 6.0
2014-Nov-07 08:33N 26°04' W 080°07'0 0.0
2014-Nov-07 07:32N 26°04' W 080°07'0 0.0
2014-Nov-07 06:28N 26°04' W 080°07'0 0.0
2014-Nov-07 05:22N 26°04' W 080°07'0 0.0
2014-Nov-07 04:33N 26°04' W 080°07'0 0.0
2014-Nov-07 03:24N 26°04' W 080°07'0 0.0
2014-Nov-07 02:32N 26°04' W 080°07'0 0.0
2014-Nov-07 01:26N 26°04' W 080°07'0 0.0
2014-Nov-07 00:16N 26°04' W 080°07'0 0.3
2014-Nov-06 23:28N 26°04' W 080°07'0 0.0
2014-Nov-06 22:19N 26°04' W 080°07'0 0.0
2014-Nov-06 21:33N 26°04' W 080°07'0 0.0
2014-Nov-06 20:33N 26°04' W 080°07'0 0.0
2014-Nov-06 19:33N 26°04' W 080°07'0 0.1
2014-Nov-06 18:33N 26°04' W 080°07'0 0.0
2014-Nov-06 17:33N 26°04' W 080°07'0 0.0
2014-Nov-06 16:33N 26°04' W 080°07'0 0.0
2014-Nov-06 15:33N 26°04' W 080°07'0 0.0
2014-Nov-06 14:33N 26°04' W 080°07'0 0.0
2014-Nov-06 13:33N 26°04' W 080°07'0 0.0
2014-Nov-06 12:33N 26°04' W 080°07'0 0.0
2014-Nov-06 11:33N 26°04' W 080°07'0 0.0
2014-Nov-06 10:33N 26°04' W 080°07'0 0.0
2014-Nov-06 09:33N 26°04' W 080°07'1 1.2
2014-Nov-06 08:33N 26°05' W 080°07'0 0.4
2014-Nov-06 07:33N 26°05' W 080°07'0 0.0
2014-Nov-06 06:33N 26°05' W 080°07'0 0.0
2014-Nov-06 05:33N 26°05' W 080°07'0 0.0
2014-Nov-06 04:33N 26°05' W 080°07'0 0.0
2014-Nov-06 03:33N 26°05' W 080°07'0 0.0
2014-Nov-06 02:33N 26°05' W 080°07'0 0.0
2014-Nov-06 01:33N 26°05' W 080°07'0 0.0
2014-Nov-06 00:33N 26°05' W 080°07'0 0.0
2014-Nov-05 23:33N 26°05' W 080°07'0 0.0
2014-Nov-05 22:33N 26°05' W 080°07'0 0.0
2014-Nov-05 21:33N 26°05' W 080°07'0 0.0
2014-Nov-05 20:33N 26°05' W 080°07'0 0.0
2014-Nov-05 19:33N 26°05' W 080°07'0 0.0
2014-Nov-05 18:33N 26°05' W 080°07'0 0.0
2014-Nov-05 17:33N 26°05' W 080°07'0 0.0
2014-Nov-05 16:33N 26°05' W 080°07'0 0.0
2014-Nov-05 15:33N 26°05' W 080°07'0 0.0
2014-Nov-05 14:33N 26°05' W 080°07'0 0.0
2014-Nov-05 13:33N 26°05' W 080°07'0 0.0
2014-Nov-05 12:33N 26°05' W 080°07'0 0.0
2014-Nov-05 11:33N 26°05' W 080°07'0 0.0
2014-Nov-05 10:33N 26°05' W 080°07'0 0.0
2014-Nov-05 09:33N 26°05' W 080°07'0 0.0
2014-Nov-05 08:33N 26°05' W 080°07'0 0.0
2014-Nov-05 07:33N 26°05' W 080°07'0 0.0
2014-Nov-05 06:33N 26°05' W 080°07'0 0.0
2014-Nov-05 05:33N 26°05' W 080°07'0 0.0
2014-Nov-05 04:33N 26°05' W 080°07'0 0.0
2014-Nov-05 03:33N 26°05' W 080°07'0 0.0
2014-Nov-05 02:33N 26°05' W 080°07'0 0.0
2014-Nov-05 01:33N 26°05' W 080°07'0 0.0
2014-Nov-05 00:33N 26°05' W 080°07'0 0.0
2014-Nov-04 23:33N 26°05' W 080°07'0 0.0
2014-Nov-04 22:33N 26°05' W 080°07'0 0.0
2014-Nov-04 21:33N 26°05' W 080°07'0 0.0
2014-Nov-04 20:33N 26°05' W 080°07'0 0.0
2014-Nov-04 19:33N 26°05' W 080°07'0 0.0
2014-Nov-04 18:33N 26°05' W 080°07'0 0.0
2014-Nov-04 17:33N 26°05' W 080°07'0 0.0
2014-Nov-04 16:33N 26°05' W 080°07'0 0.0
2014-Nov-04 15:33N 26°05' W 080°07'0 0.0
2014-Nov-04 14:33N 26°05' W 080°07'0 0.0
2014-Nov-04 13:33N 26°05' W 080°07'0 0.0
2014-Nov-04 12:33N 26°05' W 080°07'  

Dump ship's entire track history